sensor_id;sensor_type;location;lat;lon;timestamp;P1;durP1;ratioP1;P2;durP2;ratioP2
81901;SDS011;71369;50.796;3.290;2023-08-21T00:01:43;120.50;;;113.57;;
81901;SDS011;71369;50.796;3.290;2023-08-21T00:04:09;113.90;;;107.10;;
81901;SDS011;71369;50.796;3.290;2023-08-21T00:06:35;110.75;;;104.50;;
81901;SDS011;71369;50.796;3.290;2023-08-21T00:09:01;110.18;;;104.13;;
81901;SDS011;71369;50.796;3.290;2023-08-21T00:11:27;108.10;;;102.10;;
81901;SDS011;71369;50.796;3.290;2023-08-21T00:13:53;108.88;;;102.75;;
81901;SDS011;71369;50.796;3.290;2023-08-21T00:16:19;114.03;;;107.55;;
81901;SDS011;71369;50.796;3.290;2023-08-21T00:18:44;106.57;;;100.32;;
81901;SDS011;71369;50.796;3.290;2023-08-21T00:21:10;114.80;;;108.35;;
81901;SDS011;71369;50.796;3.290;2023-08-21T00:23:36;120.88;;;113.85;;
81901;SDS011;71369;50.796;3.290;2023-08-21T00:26:02;106.70;;;100.60;;
81901;SDS011;71369;50.796;3.290;2023-08-21T00:28:27;104.45;;;98.70;;
81901;SDS011;71369;50.796;3.290;2023-08-21T00:31:04;116.05;;;109.80;;
81901;SDS011;71369;50.796;3.290;2023-08-21T00:33:31;119.93;;;113.55;;
81901;SDS011;71369;50.796;3.290;2023-08-21T00:35:57;97.95;;;92.75;;
81901;SDS011;71369;50.796;3.290;2023-08-21T00:38:23;113.43;;;107.00;;
81901;SDS011;71369;50.796;3.290;2023-08-21T00:40:49;122.32;;;115.55;;
81901;SDS011;71369;50.796;3.290;2023-08-21T00:43:16;120.38;;;113.50;;
81901;SDS011;71369;50.796;3.290;2023-08-21T00:45:42;117.97;;;111.43;;
81901;SDS011;71369;50.796;3.290;2023-08-21T00:48:09;108.05;;;102.47;;
81901;SDS011;71369;50.796;3.290;2023-08-21T00:50:36;121.88;;;115.40;;
81901;SDS011;71369;50.796;3.290;2023-08-21T00:53:03;119.70;;;113.10;;
81901;SDS011;71369;50.796;3.290;2023-08-21T00:55:30;123.93;;;116.95;;
81901;SDS011;71369;50.796;3.290;2023-08-21T00:57:56;123.30;;;116.47;;
81901;SDS011;71369;50.796;3.290;2023-08-21T01:00:24;118.80;;;112.18;;
81901;SDS011;71369;50.796;3.290;2023-08-21T01:02:50;114.55;;;108.35;;
81901;SDS011;71369;50.796;3.290;2023-08-21T01:05:17;117.65;;;111.15;;
81901;SDS011;71369;50.796;3.290;2023-08-21T01:07:56;114.00;;;108.05;;
81901;SDS011;71369;50.796;3.290;2023-08-21T01:11:11;116.03;;;109.80;;
81901;SDS011;71369;50.796;3.290;2023-08-21T01:15:57;114.85;;;108.50;;
81901;SDS011;71369;50.796;3.290;2023-08-21T01:18:24;110.18;;;104.20;;
81901;SDS011;71369;50.796;3.290;2023-08-21T01:20:53;110.60;;;104.82;;
81901;SDS011;71369;50.796;3.290;2023-08-21T01:23:30;115.32;;;109.07;;
81901;SDS011;71369;50.796;3.290;2023-08-21T01:26:03;112.47;;;106.28;;
81901;SDS011;71369;50.796;3.290;2023-08-21T01:28:30;109.05;;;102.93;;
81901;SDS011;71369;50.796;3.290;2023-08-21T01:30:59;107.68;;;101.88;;
81901;SDS011;71369;50.796;3.290;2023-08-21T01:33:36;112.03;;;106.00;;
81901;SDS011;71369;50.796;3.290;2023-08-21T01:36:10;106.50;;;100.97;;
81901;SDS011;71369;50.796;3.290;2023-08-21T01:38:37;112.15;;;106.38;;
81901;SDS011;71369;50.796;3.290;2023-08-21T01:41:03;111.57;;;105.55;;
81901;SDS011;71369;50.796;3.290;2023-08-21T01:43:29;113.03;;;106.60;;
81901;SDS011;71369;50.796;3.290;2023-08-21T01:45:54;118.40;;;112.18;;
81901;SDS011;71369;50.796;3.290;2023-08-21T01:48:20;112.75;;;106.47;;
81901;SDS011;71369;50.796;3.290;2023-08-21T01:50:46;104.55;;;98.78;;
81901;SDS011;71369;50.796;3.290;2023-08-21T01:53:12;112.15;;;105.70;;
81901;SDS011;71369;50.796;3.290;2023-08-21T01:55:37;111.50;;;104.88;;
81901;SDS011;71369;50.796;3.290;2023-08-21T01:58:03;113.10;;;106.88;;
81901;SDS011;71369;50.796;3.290;2023-08-21T02:00:29;105.45;;;99.80;;
81901;SDS011;71369;50.796;3.290;2023-08-21T02:02:55;111.47;;;105.18;;
81901;SDS011;71369;50.796;3.290;2023-08-21T02:05:20;108.50;;;102.65;;
81901;SDS011;71369;50.796;3.290;2023-08-21T02:07:46;112.82;;;106.53;;
81901;SDS011;71369;50.796;3.290;2023-08-21T02:10:12;113.05;;;106.80;;
81901;SDS011;71369;50.796;3.290;2023-08-21T02:12:38;99.40;;;93.78;;
81901;SDS011;71369;50.796;3.290;2023-08-21T02:15:04;105.18;;;99.25;;
81901;SDS011;71369;50.796;3.290;2023-08-21T02:17:30;105.88;;;99.80;;
81901;SDS011;71369;50.796;3.290;2023-08-21T02:19:57;100.18;;;94.93;;
81901;SDS011;71369;50.796;3.290;2023-08-21T02:22:23;117.55;;;111.22;;
81901;SDS011;71369;50.796;3.290;2023-08-21T02:24:48;106.25;;;100.53;;
81901;SDS011;71369;50.796;3.290;2023-08-21T02:27:14;105.78;;;99.95;;
81901;SDS011;71369;50.796;3.290;2023-08-21T02:29:40;105.78;;;99.70;;
81901;SDS011;71369;50.796;3.290;2023-08-21T02:32:05;114.72;;;108.72;;
81901;SDS011;71369;50.796;3.290;2023-08-21T02:34:32;102.40;;;96.68;;
81901;SDS011;71369;50.796;3.290;2023-08-21T02:36:57;103.50;;;97.75;;
81901;SDS011;71369;50.796;3.290;2023-08-21T02:39:23;103.22;;;97.40;;
81901;SDS011;71369;50.796;3.290;2023-08-21T02:41:49;113.82;;;107.18;;
81901;SDS011;71369;50.796;3.290;2023-08-21T02:44:15;102.53;;;96.90;;
81901;SDS011;71369;50.796;3.290;2023-08-21T02:46:40;99.80;;;93.80;;
81901;SDS011;71369;50.796;3.290;2023-08-21T02:49:06;104.35;;;98.50;;
81901;SDS011;71369;50.796;3.290;2023-08-21T02:51:32;104.25;;;98.28;;
81901;SDS011;71369;50.796;3.290;2023-08-21T02:53:57;112.45;;;106.32;;
81901;SDS011;71369;50.796;3.290;2023-08-21T02:56:23;110.80;;;104.70;;
81901;SDS011;71369;50.796;3.290;2023-08-21T02:58:49;102.47;;;96.97;;
81901;SDS011;71369;50.796;3.290;2023-08-21T03:01:14;104.80;;;98.75;;
81901;SDS011;71369;50.796;3.290;2023-08-21T03:03:40;101.78;;;95.60;;
81901;SDS011;71369;50.796;3.290;2023-08-21T03:06:06;109.88;;;103.97;;
81901;SDS011;71369;50.796;3.290;2023-08-21T03:08:32;112.60;;;106.68;;
81901;SDS011;71369;50.796;3.290;2023-08-21T03:10:57;106.45;;;100.70;;
81901;SDS011;71369;50.796;3.290;2023-08-21T03:13:23;114.10;;;107.93;;
81901;SDS011;71369;50.796;3.290;2023-08-21T03:15:49;109.25;;;102.95;;
81901;SDS011;71369;50.796;3.290;2023-08-21T03:18:14;105.63;;;99.57;;
81901;SDS011;71369;50.796;3.290;2023-08-21T03:20:46;111.78;;;105.72;;
81901;SDS011;71369;50.796;3.290;2023-08-21T03:23:12;116.10;;;110.20;;
81901;SDS011;71369;50.796;3.290;2023-08-21T03:25:39;112.18;;;106.20;;
81901;SDS011;71369;50.796;3.290;2023-08-21T03:28:05;111.43;;;105.63;;
81901;SDS011;71369;50.796;3.290;2023-08-21T03:30:30;106.63;;;100.97;;
81901;SDS011;71369;50.796;3.290;2023-08-21T03:32:56;109.63;;;103.55;;
81901;SDS011;71369;50.796;3.290;2023-08-21T03:35:22;114.82;;;108.78;;
81901;SDS011;71369;50.796;3.290;2023-08-21T03:37:47;109.40;;;103.65;;
81901;SDS011;71369;50.796;3.290;2023-08-21T03:40:13;119.97;;;113.93;;
81901;SDS011;71369;50.796;3.290;2023-08-21T03:42:39;116.82;;;110.40;;
81901;SDS011;71369;50.796;3.290;2023-08-21T03:45:05;115.63;;;109.13;;
81901;SDS011;71369;50.796;3.290;2023-08-21T03:47:31;115.28;;;109.18;;
81901;SDS011;71369;50.796;3.290;2023-08-21T03:49:57;112.90;;;106.90;;
81901;SDS011;71369;50.796;3.290;2023-08-21T03:52:22;117.68;;;111.03;;
81901;SDS011;71369;50.796;3.290;2023-08-21T03:54:48;123.75;;;116.57;;
81901;SDS011;71369;50.796;3.290;2023-08-21T03:57:14;118.50;;;112.18;;
81901;SDS011;71369;50.796;3.290;2023-08-21T03:59:39;122.22;;;115.35;;
81901;SDS011;71369;50.796;3.290;2023-08-21T04:02:06;117.57;;;111.22;;
81901;SDS011;71369;50.796;3.290;2023-08-21T04:04:31;114.43;;;108.07;;
81901;SDS011;71369;50.796;3.290;2023-08-21T04:06:57;124.55;;;117.70;;
81901;SDS011;71369;50.796;3.290;2023-08-21T04:09:23;120.93;;;113.60;;
81901;SDS011;71369;50.796;3.290;2023-08-21T04:11:48;123.80;;;117.00;;
81901;SDS011;71369;50.796;3.290;2023-08-21T04:14:14;122.13;;;115.10;;
81901;SDS011;71369;50.796;3.290;2023-08-21T04:16:40;119.07;;;112.18;;
81901;SDS011;71369;50.796;3.290;2023-08-21T04:19:05;125.82;;;119.18;;
81901;SDS011;71369;50.796;3.290;2023-08-21T04:21:31;125.68;;;118.90;;
81901;SDS011;71369;50.796;3.290;2023-08-21T04:23:57;123.72;;;116.80;;
81901;SDS011;71369;50.796;3.290;2023-08-21T04:26:23;121.22;;;114.68;;
81901;SDS011;71369;50.796;3.290;2023-08-21T04:28:48;122.60;;;115.70;;
81901;SDS011;71369;50.796;3.290;2023-08-21T04:31:14;117.53;;;111.05;;
81901;SDS011;71369;50.796;3.290;2023-08-21T04:33:40;127.57;;;120.32;;
81901;SDS011;71369;50.796;3.290;2023-08-21T04:36:05;119.43;;;112.82;;
81901;SDS011;71369;50.796;3.290;2023-08-21T04:38:31;118.25;;;111.88;;
81901;SDS011;71369;50.796;3.290;2023-08-21T04:41:05;103.22;;;97.18;;
81901;SDS011;71369;50.796;3.290;2023-08-21T04:43:32;111.15;;;105.03;;
81901;SDS011;71369;50.796;3.290;2023-08-21T04:45:57;120.82;;;114.45;;
81901;SDS011;71369;50.796;3.290;2023-08-21T04:48:23;114.20;;;108.03;;
81901;SDS011;71369;50.796;3.290;2023-08-21T04:50:49;118.00;;;111.25;;
81901;SDS011;71369;50.796;3.290;2023-08-21T04:53:14;113.07;;;106.35;;
81901;SDS011;71369;50.796;3.290;2023-08-21T04:55:40;119.97;;;113.05;;
81901;SDS011;71369;50.796;3.290;2023-08-21T04:58:06;116.20;;;109.22;;
81901;SDS011;71369;50.796;3.290;2023-08-21T05:00:33;116.03;;;109.78;;
81901;SDS011;71369;50.796;3.290;2023-08-21T05:02:58;120.90;;;113.60;;
81901;SDS011;71369;50.796;3.290;2023-08-21T05:05:24;123.95;;;116.70;;
81901;SDS011;71369;50.796;3.290;2023-08-21T05:07:51;122.45;;;115.03;;
81901;SDS011;71369;50.796;3.290;2023-08-21T05:10:17;120.70;;;114.00;;
81901;SDS011;71369;50.796;3.290;2023-08-21T05:12:43;122.35;;;114.82;;
81901;SDS011;71369;50.796;3.290;2023-08-21T05:15:10;113.53;;;106.65;;
81901;SDS011;71369;50.796;3.290;2023-08-21T05:17:36;130.98;;;123.10;;
81901;SDS011;71369;50.796;3.290;2023-08-21T05:20:01;115.53;;;108.13;;
81901;SDS011;71369;50.796;3.290;2023-08-21T05:22:28;113.38;;;105.45;;
81901;SDS011;71369;50.796;3.290;2023-08-21T05:24:54;121.05;;;113.32;;
81901;SDS011;71369;50.796;3.290;2023-08-21T05:27:19;120.25;;;113.28;;
81901;SDS011;71369;50.796;3.290;2023-08-21T05:29:45;121.57;;;114.30;;
81901;SDS011;71369;50.796;3.290;2023-08-21T05:32:11;119.80;;;112.53;;
81901;SDS011;71369;50.796;3.290;2023-08-21T05:34:37;117.38;;;110.78;;
81901;SDS011;71369;50.796;3.290;2023-08-21T05:37:03;117.93;;;111.05;;
81901;SDS011;71369;50.796;3.290;2023-08-21T05:39:28;114.80;;;107.57;;
81901;SDS011;71369;50.796;3.290;2023-08-21T05:41:54;120.35;;;113.45;;
81901;SDS011;71369;50.796;3.290;2023-08-21T05:44:20;113.85;;;106.40;;
81901;SDS011;71369;50.796;3.290;2023-08-21T05:46:45;115.82;;;108.82;;
81901;SDS011;71369;50.796;3.290;2023-08-21T05:49:11;123.32;;;115.75;;
81901;SDS011;71369;50.796;3.290;2023-08-21T05:51:37;118.78;;;111.53;;
81901;SDS011;71369;50.796;3.290;2023-08-21T05:54:02;131.80;;;123.65;;
81901;SDS011;71369;50.796;3.290;2023-08-21T05:56:28;143.65;;;134.25;;
81901;SDS011;71369;50.796;3.290;2023-08-21T05:58:54;152.52;;;143.48;;
81901;SDS011;71369;50.796;3.290;2023-08-21T06:01:20;142.18;;;133.60;;
81901;SDS011;71369;50.796;3.290;2023-08-21T06:03:45;146.60;;;137.50;;
81901;SDS011;71369;50.796;3.290;2023-08-21T06:06:11;137.90;;;129.27;;
81901;SDS011;71369;50.796;3.290;2023-08-21T06:08:37;131.50;;;122.90;;
81901;SDS011;71369;50.796;3.290;2023-08-21T06:11:03;137.00;;;128.30;;
81901;SDS011;71369;50.796;3.290;2023-08-21T06:13:29;126.63;;;118.25;;
81901;SDS011;71369;50.796;3.290;2023-08-21T06:15:55;139.32;;;131.07;;
81901;SDS011;71369;50.796;3.290;2023-08-21T06:18:21;135.43;;;126.68;;
81901;SDS011;71369;50.796;3.290;2023-08-21T06:20:47;131.73;;;123.13;;
81901;SDS011;71369;50.796;3.290;2023-08-21T06:23:14;141.15;;;131.52;;
81901;SDS011;71369;50.796;3.290;2023-08-21T06:25:39;135.40;;;126.53;;
81901;SDS011;71369;50.796;3.290;2023-08-21T06:28:09;147.27;;;138.02;;
81901;SDS011;71369;50.796;3.290;2023-08-21T06:30:35;148.10;;;138.20;;
81901;SDS011;71369;50.796;3.290;2023-08-21T06:33:01;146.38;;;136.48;;
81901;SDS011;71369;50.796;3.290;2023-08-21T06:35:27;165.85;;;154.77;;
81901;SDS011;71369;50.796;3.290;2023-08-21T06:37:52;160.05;;;149.43;;
81901;SDS011;71369;50.796;3.290;2023-08-21T06:40:19;157.85;;;147.00;;
81901;SDS011;71369;50.796;3.290;2023-08-21T06:42:45;157.85;;;147.00;;
81901;SDS011;71369;50.796;3.290;2023-08-21T06:45:11;180.35;;;168.13;;
81901;SDS011;71369;50.796;3.290;2023-08-21T06:47:36;171.75;;;159.65;;
81901;SDS011;71369;50.796;3.290;2023-08-21T06:50:02;160.07;;;148.98;;
81901;SDS011;71369;50.796;3.290;2023-08-21T06:52:28;176.40;;;164.02;;
81901;SDS011;71369;50.796;3.290;2023-08-21T06:54:53;202.02;;;188.50;;
81901;SDS011;71369;50.796;3.290;2023-08-21T06:57:19;179.10;;;167.02;;
81901;SDS011;71369;50.796;3.290;2023-08-21T06:59:45;185.60;;;173.05;;
81901;SDS011;71369;50.796;3.290;2023-08-21T07:02:11;190.73;;;178.30;;
81901;SDS011;71369;50.796;3.290;2023-08-21T07:04:36;198.75;;;184.98;;
81901;SDS011;71369;50.796;3.290;2023-08-21T07:07:02;191.35;;;178.45;;
81901;SDS011;71369;50.796;3.290;2023-08-21T07:09:28;214.23;;;200.20;;
81901;SDS011;71369;50.796;3.290;2023-08-21T07:11:54;218.68;;;204.70;;
81901;SDS011;71369;50.796;3.290;2023-08-21T07:14:20;215.73;;;201.57;;
81901;SDS011;71369;50.796;3.290;2023-08-21T07:16:46;229.75;;;215.10;;
81901;SDS011;71369;50.796;3.290;2023-08-21T07:19:11;216.23;;;202.93;;
81901;SDS011;71369;50.796;3.290;2023-08-21T07:21:37;217.48;;;204.18;;
81901;SDS011;71369;50.796;3.290;2023-08-21T07:24:03;222.43;;;208.02;;
81901;SDS011;71369;50.796;3.290;2023-08-21T07:26:29;205.18;;;192.63;;
81901;SDS011;71369;50.796;3.290;2023-08-21T07:28:55;217.05;;;203.88;;
81901;SDS011;71369;50.796;3.290;2023-08-21T07:31:22;226.15;;;211.73;;
81901;SDS011;71369;50.796;3.290;2023-08-21T07:33:48;200.85;;;188.13;;
81901;SDS011;71369;50.796;3.290;2023-08-21T07:36:13;204.23;;;190.90;;
81901;SDS011;71369;50.796;3.290;2023-08-21T07:38:45;197.77;;;185.18;;
81901;SDS011;71369;50.796;3.290;2023-08-21T07:41:11;213.98;;;199.52;;
81901;SDS011;71369;50.796;3.290;2023-08-21T07:43:39;198.65;;;186.13;;
81901;SDS011;71369;50.796;3.290;2023-08-21T07:46:06;202.02;;;188.90;;
81901;SDS011;71369;50.796;3.290;2023-08-21T07:48:34;212.48;;;198.85;;
81901;SDS011;71369;50.796;3.290;2023-08-21T07:51:00;201.30;;;188.90;;
81901;SDS011;71369;50.796;3.290;2023-08-21T07:53:27;217.07;;;203.73;;
81901;SDS011;71369;50.796;3.290;2023-08-21T07:55:53;224.80;;;211.57;;
81901;SDS011;71369;50.796;3.290;2023-08-21T07:58:19;233.02;;;219.07;;
81901;SDS011;71369;50.796;3.290;2023-08-21T08:00:45;228.65;;;215.20;;
81901;SDS011;71369;50.796;3.290;2023-08-21T08:03:11;241.05;;;226.48;;
81901;SDS011;71369;50.796;3.290;2023-08-21T08:05:39;236.13;;;221.93;;
81901;SDS011;71369;50.796;3.290;2023-08-21T08:08:05;234.63;;;221.18;;
81901;SDS011;71369;50.796;3.290;2023-08-21T08:10:31;241.60;;;227.35;;
81901;SDS011;71369;50.796;3.290;2023-08-21T08:12:57;234.52;;;221.07;;
81901;SDS011;71369;50.796;3.290;2023-08-21T08:15:23;225.02;;;211.70;;
81901;SDS011;71369;50.796;3.290;2023-08-21T08:17:48;237.82;;;223.73;;
81901;SDS011;71369;50.796;3.290;2023-08-21T08:20:18;234.55;;;221.40;;
81901;SDS011;71369;50.796;3.290;2023-08-21T08:22:44;241.50;;;227.80;;
81901;SDS011;71369;50.796;3.290;2023-08-21T08:25:10;254.40;;;239.40;;
81901;SDS011;71369;50.796;3.290;2023-08-21T08:27:36;283.63;;;265.90;;
81901;SDS011;71369;50.796;3.290;2023-08-21T08:30:02;291.42;;;274.10;;
81901;SDS011;71369;50.796;3.290;2023-08-21T08:32:29;251.20;;;236.55;;
81901;SDS011;71369;50.796;3.290;2023-08-21T08:34:55;281.75;;;263.60;;
81901;SDS011;71369;50.796;3.290;2023-08-21T08:37:20;285.67;;;267.10;;
81901;SDS011;71369;50.796;3.290;2023-08-21T08:39:46;263.90;;;247.32;;
81901;SDS011;71369;50.796;3.290;2023-08-21T08:42:13;242.38;;;226.45;;
81901;SDS011;71369;50.796;3.290;2023-08-21T08:44:40;242.50;;;227.20;;
81901;SDS011;71369;50.796;3.290;2023-08-21T08:47:08;233.75;;;219.68;;
81901;SDS011;71369;50.796;3.290;2023-08-21T08:49:35;232.10;;;217.50;;
81901;SDS011;71369;50.796;3.290;2023-08-21T08:52:01;255.88;;;239.73;;
81901;SDS011;71369;50.796;3.290;2023-08-21T08:54:27;261.38;;;245.07;;
81901;SDS011;71369;50.796;3.290;2023-08-21T08:56:55;247.48;;;230.93;;
81901;SDS011;71369;50.796;3.290;2023-08-21T08:59:21;269.27;;;250.25;;
81901;SDS011;71369;50.796;3.290;2023-08-21T09:01:47;264.60;;;246.52;;
81901;SDS011;71369;50.796;3.290;2023-08-21T09:04:13;271.02;;;253.85;;
81901;SDS011;71369;50.796;3.290;2023-08-21T09:06:39;290.25;;;271.42;;
81901;SDS011;71369;50.796;3.290;2023-08-21T09:09:05;290.30;;;272.75;;
81901;SDS011;71369;50.796;3.290;2023-08-21T09:11:33;284.73;;;266.35;;
81901;SDS011;71369;50.796;3.290;2023-08-21T09:13:59;276.13;;;259.08;;
81901;SDS011;71369;50.796;3.290;2023-08-21T09:16:25;274.45;;;257.30;;
81901;SDS011;71369;50.796;3.290;2023-08-21T09:18:55;284.75;;;267.88;;
81901;SDS011;71369;50.796;3.290;2023-08-21T09:23:48;255.60;;;239.52;;
81901;SDS011;71369;50.796;3.290;2023-08-21T09:26:22;255.00;;;239.57;;
81901;SDS011;71369;50.796;3.290;2023-08-21T09:28:49;236.38;;;221.40;;
81901;SDS011;71369;50.796;3.290;2023-08-21T09:31:16;237.32;;;221.95;;
81901;SDS011;71369;50.796;3.290;2023-08-21T09:33:54;217.60;;;203.73;;
81901;SDS011;71369;50.796;3.290;2023-08-21T09:36:30;238.82;;;223.43;;
81901;SDS011;71369;50.796;3.290;2023-08-21T09:38:56;241.55;;;225.48;;
81901;SDS011;71369;50.796;3.290;2023-08-21T09:41:22;244.52;;;229.05;;
81901;SDS011;71369;50.796;3.290;2023-08-21T09:43:49;233.68;;;218.82;;
81901;SDS011;71369;50.796;3.290;2023-08-21T09:46:15;254.50;;;238.48;;
81901;SDS011;71369;50.796;3.290;2023-08-21T09:48:42;229.73;;;215.73;;
81901;SDS011;71369;50.796;3.290;2023-08-21T09:51:10;257.27;;;241.18;;
81901;SDS011;71369;50.796;3.290;2023-08-21T09:53:37;267.33;;;250.80;;
81901;SDS011;71369;50.796;3.290;2023-08-21T09:56:04;272.77;;;256.15;;
81901;SDS011;71369;50.796;3.290;2023-08-21T09:58:31;303.00;;;284.48;;
81901;SDS011;71369;50.796;3.290;2023-08-21T10:00:59;290.80;;;273.83;;
81901;SDS011;71369;50.796;3.290;2023-08-21T10:03:26;274.55;;;259.10;;
81901;SDS011;71369;50.796;3.290;2023-08-21T10:05:54;280.27;;;264.65;;
81901;SDS011;71369;50.796;3.290;2023-08-21T10:08:24;294.88;;;277.77;;
81901;SDS011;71369;50.796;3.290;2023-08-21T10:10:50;277.20;;;261.27;;
81901;SDS011;71369;50.796;3.290;2023-08-21T10:13:17;269.40;;;253.48;;
81901;SDS011;71369;50.796;3.290;2023-08-21T10:15:43;283.17;;;266.23;;
81901;SDS011;71369;50.796;3.290;2023-08-21T10:18:22;282.63;;;265.85;;
81901;SDS011;71369;50.796;3.290;2023-08-21T10:20:50;283.30;;;266.63;;
81901;SDS011;71369;50.796;3.290;2023-08-21T10:23:26;285.98;;;269.58;;
81901;SDS011;71369;50.796;3.290;2023-08-21T10:25:54;275.05;;;260.02;;
81901;SDS011;71369;50.796;3.290;2023-08-21T10:29:11;288.17;;;270.45;;
81901;SDS011;71369;50.796;3.290;2023-08-21T10:36:39;255.68;;;241.63;;
81901;SDS011;71369;50.796;3.290;2023-08-21T10:39:13;300.63;;;284.15;;
81901;SDS011;71369;50.796;3.290;2023-08-21T10:42:02;262.95;;;248.15;;
81901;SDS011;71369;50.796;3.290;2023-08-21T10:47:33;243.18;;;229.75;;
81901;SDS011;71369;50.796;3.290;2023-08-21T10:50:05;237.18;;;223.55;;
81901;SDS011;71369;50.796;3.290;2023-08-21T10:52:38;254.95;;;240.73;;
81901;SDS011;71369;50.796;3.290;2023-08-21T10:55:11;245.98;;;232.10;;
81901;SDS011;71369;50.796;3.290;2023-08-21T10:57:37;242.75;;;228.38;;
81901;SDS011;71369;50.796;3.290;2023-08-21T11:00:06;245.82;;;231.73;;
81901;SDS011;71369;50.796;3.290;2023-08-21T11:02:40;252.57;;;236.48;;
81901;SDS011;71369;50.796;3.290;2023-08-21T11:05:08;237.00;;;224.13;;
81901;SDS011;71369;50.796;3.290;2023-08-21T11:07:42;253.93;;;239.55;;
81901;SDS011;71369;50.796;3.290;2023-08-21T11:10:13;237.80;;;223.73;;
81901;SDS011;71369;50.796;3.290;2023-08-21T11:12:52;226.55;;;213.57;;
81901;SDS011;71369;50.796;3.290;2023-08-21T11:15:20;228.90;;;215.82;;
81901;SDS011;71369;50.796;3.290;2023-08-21T11:20:22;208.88;;;196.52;;
81901;SDS011;71369;50.796;3.290;2023-08-21T11:22:56;246.45;;;231.80;;
81901;SDS011;71369;50.796;3.290;2023-08-21T11:25:27;244.50;;;230.73;;
81901;SDS011;71369;50.796;3.290;2023-08-21T11:27:54;251.32;;;237.38;;
81901;SDS011;71369;50.796;3.290;2023-08-21T11:30:23;246.07;;;232.13;;
81901;SDS011;71369;50.796;3.290;2023-08-21T11:33:03;246.65;;;232.50;;
81901;SDS011;71369;50.796;3.290;2023-08-21T11:35:33;240.02;;;226.25;;
81901;SDS011;71369;50.796;3.290;2023-08-21T11:37:59;263.23;;;247.20;;
81901;SDS011;71369;50.796;3.290;2023-08-21T11:40:25;248.18;;;232.80;;
81901;SDS011;71369;50.796;3.290;2023-08-21T11:42:51;220.20;;;206.55;;
81901;SDS011;71369;50.796;3.290;2023-08-21T11:45:19;242.27;;;227.35;;
81901;SDS011;71369;50.796;3.290;2023-08-21T11:47:46;244.32;;;229.40;;
81901;SDS011;71369;50.796;3.290;2023-08-21T11:50:12;268.40;;;251.77;;
81901;SDS011;71369;50.796;3.290;2023-08-21T11:52:43;226.25;;;212.15;;
81901;SDS011;71369;50.796;3.290;2023-08-21T11:55:09;234.90;;;220.90;;
81901;SDS011;71369;50.796;3.290;2023-08-21T11:57:50;224.83;;;211.90;;
81901;SDS011;71369;50.796;3.290;2023-08-21T12:00:18;222.35;;;210.27;;
81901;SDS011;71369;50.796;3.290;2023-08-21T12:02:58;237.93;;;224.43;;
81901;SDS011;71369;50.796;3.290;2023-08-21T12:05:25;214.65;;;202.60;;
81901;SDS011;71369;50.796;3.290;2023-08-21T12:07:53;246.23;;;231.40;;
81901;SDS011;71369;50.796;3.290;2023-08-21T12:10:26;232.95;;;220.00;;
81901;SDS011;71369;50.796;3.290;2023-08-21T12:12:52;235.35;;;221.82;;
81901;SDS011;71369;50.796;3.290;2023-08-21T12:15:18;252.00;;;236.90;;
81901;SDS011;71369;50.796;3.290;2023-08-21T12:17:45;275.15;;;257.95;;
81901;SDS011;71369;50.796;3.290;2023-08-21T12:20:10;295.27;;;276.45;;
81901;SDS011;71369;50.796;3.290;2023-08-21T12:22:37;339.38;;;317.95;;
81901;SDS011;71369;50.796;3.290;2023-08-21T12:25:03;338.85;;;317.60;;
81901;SDS011;71369;50.796;3.290;2023-08-21T12:27:30;329.88;;;309.10;;
81901;SDS011;71369;50.796;3.290;2023-08-21T12:29:56;346.13;;;324.42;;
81901;SDS011;71369;50.796;3.290;2023-08-21T12:32:21;319.35;;;300.33;;
81901;SDS011;71369;50.796;3.290;2023-08-21T12:34:47;299.75;;;281.17;;
81901;SDS011;71369;50.796;3.290;2023-08-21T12:37:13;307.00;;;288.05;;
81901;SDS011;71369;50.796;3.290;2023-08-21T12:39:39;316.80;;;297.25;;
81901;SDS011;71369;50.796;3.290;2023-08-21T12:42:05;299.58;;;281.23;;
81901;SDS011;71369;50.796;3.290;2023-08-21T12:44:32;327.13;;;306.55;;
81901;SDS011;71369;50.796;3.290;2023-08-21T12:46:59;324.77;;;304.98;;
81901;SDS011;71369;50.796;3.290;2023-08-21T12:49:24;288.95;;;271.65;;
81901;SDS011;71369;50.796;3.290;2023-08-21T12:51:50;281.27;;;264.42;;
81901;SDS011;71369;50.796;3.290;2023-08-21T12:54:16;293.73;;;275.05;;
81901;SDS011;71369;50.796;3.290;2023-08-21T12:56:42;261.27;;;244.75;;
81901;SDS011;71369;50.796;3.290;2023-08-21T12:59:07;290.92;;;272.08;;
81901;SDS011;71369;50.796;3.290;2023-08-21T13:01:33;303.23;;;283.55;;
81901;SDS011;71369;50.796;3.290;2023-08-21T13:04:01;283.13;;;264.77;;
81901;SDS011;71369;50.796;3.290;2023-08-21T13:06:27;309.13;;;289.33;;
81901;SDS011;71369;50.796;3.290;2023-08-21T13:08:53;271.42;;;254.65;;
81901;SDS011;71369;50.796;3.290;2023-08-21T13:11:19;308.77;;;289.33;;
81901;SDS011;71369;50.796;3.290;2023-08-21T13:13:45;281.15;;;263.63;;
81901;SDS011;71369;50.796;3.290;2023-08-21T13:16:10;310.17;;;290.98;;
81901;SDS011;71369;50.796;3.290;2023-08-21T13:18:36;313.98;;;294.63;;
81901;SDS011;71369;50.796;3.290;2023-08-21T13:21:02;282.08;;;264.90;;
81901;SDS011;71369;50.796;3.290;2023-08-21T13:23:29;273.38;;;256.40;;
81901;SDS011;71369;50.796;3.290;2023-08-21T13:25:55;297.15;;;278.20;;
81901;SDS011;71369;50.796;3.290;2023-08-21T13:28:23;283.73;;;265.63;;
81901;SDS011;71369;50.796;3.290;2023-08-21T13:30:49;304.70;;;285.23;;
81901;SDS011;71369;50.796;3.290;2023-08-21T13:33:15;307.23;;;287.92;;
81901;SDS011;71369;50.796;3.290;2023-08-21T13:35:43;292.10;;;273.40;;
81901;SDS011;71369;50.796;3.290;2023-08-21T13:38:09;323.45;;;302.25;;
81901;SDS011;71369;50.796;3.290;2023-08-21T13:40:35;338.90;;;317.23;;
81901;SDS011;71369;50.796;3.290;2023-08-21T13:43:01;334.38;;;313.73;;
81901;SDS011;71369;50.796;3.290;2023-08-21T13:45:28;318.35;;;297.92;;
81901;SDS011;71369;50.796;3.290;2023-08-21T13:47:54;315.73;;;295.27;;
81901;SDS011;71369;50.796;3.290;2023-08-21T13:50:20;302.92;;;282.50;;
81901;SDS011;71369;50.796;3.290;2023-08-21T13:52:46;262.55;;;247.75;;
81901;SDS011;71369;50.796;3.290;2023-08-21T13:55:13;288.92;;;274.05;;
81901;SDS011;71369;50.796;3.290;2023-08-21T13:57:40;281.27;;;266.02;;
81901;SDS011;71369;50.796;3.290;2023-08-21T14:00:07;279.08;;;263.08;;
81901;SDS011;71369;50.796;3.290;2023-08-21T14:02:37;263.50;;;249.85;;
81901;SDS011;71369;50.796;3.290;2023-08-21T14:05:03;291.23;;;275.45;;
81901;SDS011;71369;50.796;3.290;2023-08-21T14:07:30;268.98;;;254.18;;
81901;SDS011;71369;50.796;3.290;2023-08-21T14:09:56;299.05;;;280.88;;
81901;SDS011;71369;50.796;3.290;2023-08-21T14:12:22;291.08;;;274.30;;
81901;SDS011;71369;50.796;3.290;2023-08-21T14:14:48;305.42;;;287.75;;